sensor_id;sensor_type;location;lat;lon;timestamp;temperature;humidity
11762;DHT22;5938;47.098;15.474;2023-02-11T00:00:54;-6.30;99.90
11762;DHT22;5938;47.098;15.474;2023-02-11T00:04:59;-6.50;99.90
11762;DHT22;5938;47.098;15.474;2023-02-11T00:09:05;-6.60;99.90
11762;DHT22;5938;47.098;15.474;2023-02-11T00:13:09;-6.40;99.90
11762;DHT22;5938;47.098;15.474;2023-02-11T00:17:12;-6.60;99.90
11762;DHT22;5938;47.098;15.474;2023-02-11T00:21:18;-6.60;99.90
11762;DHT22;5938;47.098;15.474;2023-02-11T00:25:22;-6.60;99.90
11762;DHT22;5938;47.098;15.474;2023-02-11T00:29:25;-6.60;99.90
11762;DHT22;5938;47.098;15.474;2023-02-11T00:33:29;-7.00;99.90
11762;DHT22;5938;47.098;15.474;2023-02-11T00:37:33;-6.40;99.90
11762;DHT22;5938;47.098;15.474;2023-02-11T00:41:37;-6.60;99.90
11762;DHT22;5938;47.098;15.474;2023-02-11T00:45:41;-6.60;99.90
11762;DHT22;5938;47.098;15.474;2023-02-11T00:49:44;-6.70;99.90
11762;DHT22;5938;47.098;15.474;2023-02-11T00:53:49;-6.70;99.90
11762;DHT22;5938;47.098;15.474;2023-02-11T00:57:52;-6.80;99.90
11762;DHT22;5938;47.098;15.474;2023-02-11T01:01:56;-6.80;99.90
11762;DHT22;5938;47.098;15.474;2023-02-11T01:05:59;-6.70;99.90
11762;DHT22;5938;47.098;15.474;2023-02-11T01:10:04;-6.60;99.90
11762;DHT22;5938;47.098;15.474;2023-02-11T01:14:08;-6.70;99.90
11762;DHT22;5938;47.098;15.474;2023-02-11T01:18:11;-6.70;99.90
11762;DHT22;5938;47.098;15.474;2023-02-11T01:22:14;-6.80;99.90
11762;DHT22;5938;47.098;15.474;2023-02-11T01:26:19;-6.80;99.90
11762;DHT22;5938;47.098;15.474;2023-02-11T01:30:23;-6.90;99.90
11762;DHT22;5938;47.098;15.474;2023-02-11T01:34:26;-6.80;99.90
11762;DHT22;5938;47.098;15.474;2023-02-11T01:38:30;-6.90;99.90
11762;DHT22;5938;47.098;15.474;2023-02-11T01:42:34;-6.80;99.90
11762;DHT22;5938;47.098;15.474;2023-02-11T01:46:38;-6.70;99.90
11762;DHT22;5938;47.098;15.474;2023-02-11T01:50:42;-6.90;99.90
11762;DHT22;5938;47.098;15.474;2023-02-11T01:54:49;-6.90;99.90
11762;DHT22;5938;47.098;15.474;2023-02-11T01:59:17;-6.70;99.90
11762;DHT22;5938;47.098;15.474;2023-02-11T02:03:23;-6.80;99.90
11762;DHT22;5938;47.098;15.474;2023-02-11T02:07:31;-6.60;99.90
11762;DHT22;5938;47.098;15.474;2023-02-11T02:11:35;-6.70;99.90
11762;DHT22;5938;47.098;15.474;2023-02-11T02:15:43;-6.60;99.90
11762;DHT22;5938;47.098;15.474;2023-02-11T02:20:10;-6.70;99.90
11762;DHT22;5938;47.098;15.474;2023-02-11T02:29:21;-6.70;99.90
11762;DHT22;5938;47.098;15.474;2023-02-11T02:33:36;-6.80;99.90
11762;DHT22;5938;47.098;15.474;2023-02-11T02:37:49;-6.90;99.90
11762;DHT22;5938;47.098;15.474;2023-02-11T02:41:54;-7.00;99.90
11762;DHT22;5938;47.098;15.474;2023-02-11T02:46:10;-7.10;99.90
11762;DHT22;5938;47.098;15.474;2023-02-11T02:50:17;-7.10;99.90
11762;DHT22;5938;47.098;15.474;2023-02-11T02:59:12;-7.10;99.90
11762;DHT22;5938;47.098;15.474;2023-02-11T03:03:24;-7.10;99.90
11762;DHT22;5938;47.098;15.474;2023-02-11T03:07:39;-7.10;99.90
11762;DHT22;5938;47.098;15.474;2023-02-11T03:11:43;-7.30;99.90
11762;DHT22;5938;47.098;15.474;2023-02-11T03:15:49;-7.10;99.90
11762;DHT22;5938;47.098;15.474;2023-02-11T03:19:56;-7.10;99.90
11762;DHT22;5938;47.098;15.474;2023-02-11T03:24:05;-7.30;99.90
11762;DHT22;5938;47.098;15.474;2023-02-11T03:28:14;-7.30;99.90
11762;DHT22;5938;47.098;15.474;2023-02-11T03:32:22;-7.20;99.90
11762;DHT22;5938;47.098;15.474;2023-02-11T03:36:33;-7.30;99.90
11762;DHT22;5938;47.098;15.474;2023-02-11T03:40:40;-7.40;99.90
11762;DHT22;5938;47.098;15.474;2023-02-11T03:44:50;-7.40;99.90
11762;DHT22;5938;47.098;15.474;2023-02-11T03:48:57;-7.60;99.90
11762;DHT22;5938;47.098;15.474;2023-02-11T03:53:04;-8.10;99.90
11762;DHT22;5938;47.098;15.474;2023-02-11T03:57:09;-7.50;99.90
11762;DHT22;5938;47.098;15.474;2023-02-11T04:01:12;-7.50;99.90
11762;DHT22;5938;47.098;15.474;2023-02-11T04:05:16;-7.50;99.90
11762;DHT22;5938;47.098;15.474;2023-02-11T04:09:19;-7.50;99.90
11762;DHT22;5938;47.098;15.474;2023-02-11T04:13:24;-7.40;99.90
11762;DHT22;5938;47.098;15.474;2023-02-11T04:17:28;-7.50;99.90
11762;DHT22;5938;47.098;15.474;2023-02-11T04:21:31;-7.60;99.90
11762;DHT22;5938;47.098;15.474;2023-02-11T04:25:34;-7.70;99.90
11762;DHT22;5938;47.098;15.474;2023-02-11T04:29:39;-8.00;99.90
11762;DHT22;5938;47.098;15.474;2023-02-11T04:33:42;-7.50;99.90
11762;DHT22;5938;47.098;15.474;2023-02-11T04:37:45;-7.50;99.90
11762;DHT22;5938;47.098;15.474;2023-02-11T04:41:49;-8.10;99.90
11762;DHT22;5938;47.098;15.474;2023-02-11T04:45:57;-7.60;99.90
11762;DHT22;5938;47.098;15.474;2023-02-11T04:50:00;-7.90;99.90
11762;DHT22;5938;47.098;15.474;2023-02-11T04:54:04;-7.70;99.90
11762;DHT22;5938;47.098;15.474;2023-02-11T04:58:07;-7.70;99.90
11762;DHT22;5938;47.098;15.474;2023-02-11T05:02:12;-7.70;99.90
11762;DHT22;5938;47.098;15.474;2023-02-11T05:06:16;-7.70;99.90
11762;DHT22;5938;47.098;15.474;2023-02-11T05:10:19;-7.60;99.90
11762;DHT22;5938;47.098;15.474;2023-02-11T05:14:22;-7.60;99.90
11762;DHT22;5938;47.098;15.474;2023-02-11T05:18:28;-7.70;99.90
11762;DHT22;5938;47.098;15.474;2023-02-11T05:22:32;-7.90;99.90
11762;DHT22;5938;47.098;15.474;2023-02-11T05:26:35;-7.70;99.90
11762;DHT22;5938;47.098;15.474;2023-02-11T05:30:39;-7.60;99.90
11762;DHT22;5938;47.098;15.474;2023-02-11T05:34:44;-7.80;99.90
11762;DHT22;5938;47.098;15.474;2023-02-11T05:38:47;-7.60;99.90
11762;DHT22;5938;47.098;15.474;2023-02-11T05:42:51;-7.70;99.90
11762;DHT22;5938;47.098;15.474;2023-02-11T05:46:55;-7.60;99.90
11762;DHT22;5938;47.098;15.474;2023-02-11T05:51:00;-7.50;99.90
11762;DHT22;5938;47.098;15.474;2023-02-11T05:55:03;-7.70;99.90
11762;DHT22;5938;47.098;15.474;2023-02-11T05:59:07;-7.50;99.90
11762;DHT22;5938;47.098;15.474;2023-02-11T06:03:10;-7.60;99.90
11762;DHT22;5938;47.098;15.474;2023-02-11T06:07:15;-7.60;99.90
11762;DHT22;5938;47.098;15.474;2023-02-11T06:11:20;-7.60;99.90
11762;DHT22;5938;47.098;15.474;2023-02-11T06:15:23;-7.50;99.90
11762;DHT22;5938;47.098;15.474;2023-02-11T06:19:27;-7.50;99.90
11762;DHT22;5938;47.098;15.474;2023-02-11T06:23:33;-7.40;99.90
11762;DHT22;5938;47.098;15.474;2023-02-11T06:27:37;-7.50;99.90
11762;DHT22;5938;47.098;15.474;2023-02-11T06:31:41;-7.50;99.90
11762;DHT22;5938;47.098;15.474;2023-02-11T06:35:44;-7.30;99.90
11762;DHT22;5938;47.098;15.474;2023-02-11T06:39:49;-7.20;99.90
11762;DHT22;5938;47.098;15.474;2023-02-11T06:43:53;-6.90;99.90
11762;DHT22;5938;47.098;15.474;2023-02-11T06:47:57;-6.70;99.90
11762;DHT22;5938;47.098;15.474;2023-02-11T06:52:00;-6.50;99.90
11762;DHT22;5938;47.098;15.474;2023-02-11T06:56:08;-6.40;99.90
11762;DHT22;5938;47.098;15.474;2023-02-11T07:00:13;-6.10;99.90
11762;DHT22;5938;47.098;15.474;2023-02-11T07:04:16;-5.90;99.90
11762;DHT22;5938;47.098;15.474;2023-02-11T07:08:20;-5.60;99.90
11762;DHT22;5938;47.098;15.474;2023-02-11T07:12:25;-5.30;99.90
11762;DHT22;5938;47.098;15.474;2023-02-11T07:16:28;-5.60;99.90
11762;DHT22;5938;47.098;15.474;2023-02-11T07:20:32;-5.00;99.90
11762;DHT22;5938;47.098;15.474;2023-02-11T07:24:35;-5.00;99.90
11762;DHT22;5938;47.098;15.474;2023-02-11T07:28:40;-4.90;99.90
11762;DHT22;5938;47.098;15.474;2023-02-11T07:32:44;-4.80;99.90
11762;DHT22;5938;47.098;15.474;2023-02-11T07:36:47;-5.30;99.90
11762;DHT22;5938;47.098;15.474;2023-02-11T07:40:51;-5.00;99.90
11762;DHT22;5938;47.098;15.474;2023-02-11T07:44:55;-4.70;99.90
11762;DHT22;5938;47.098;15.474;2023-02-11T07:49:07;-4.50;99.90
11762;DHT22;5938;47.098;15.474;2023-02-11T07:53:10;-4.50;99.90
11762;DHT22;5938;47.098;15.474;2023-02-11T07:57:14;-4.40;99.90
11762;DHT22;5938;47.098;15.474;2023-02-11T08:01:21;-4.30;99.90
11762;DHT22;5938;47.098;15.474;2023-02-11T08:05:26;-4.00;99.90
11762;DHT22;5938;47.098;15.474;2023-02-11T08:09:31;-3.70;99.90
11762;DHT22;5938;47.098;15.474;2023-02-11T08:13:35;-3.30;99.90
11762;DHT22;5938;47.098;15.474;2023-02-11T08:17:40;-3.10;99.90
11762;DHT22;5938;47.098;15.474;2023-02-11T08:21:44;-2.70;99.90
11762;DHT22;5938;47.098;15.474;2023-02-11T08:25:47;-2.70;99.90
11762;DHT22;5938;47.098;15.474;2023-02-11T08:38:37;-1.90;99.90
11762;DHT22;5938;47.098;15.474;2023-02-11T08:42:41;-1.30;99.90
11762;DHT22;5938;47.098;15.474;2023-02-11T08:46:44;-0.80;99.90
11762;DHT22;5938;47.098;15.474;2023-02-11T08:50:48;-0.60;99.90
11762;DHT22;5938;47.098;15.474;2023-02-11T08:54:54;0.10;99.90
11762;DHT22;5938;47.098;15.474;2023-02-11T08:58:58;0.70;99.90
11762;DHT22;5938;47.098;15.474;2023-02-11T09:03:02;1.10;99.90
11762;DHT22;5938;47.098;15.474;2023-02-11T09:07:05;1.60;99.90
11762;DHT22;5938;47.098;15.474;2023-02-11T09:11:10;2.00;99.30
11762;DHT22;5938;47.098;15.474;2023-02-11T09:15:14;2.50;98.50
11762;DHT22;5938;47.098;15.474;2023-02-11T09:19:18;2.90;99.90
11762;DHT22;5938;47.098;15.474;2023-02-11T09:23:21;3.10;98.30
11762;DHT22;5938;47.098;15.474;2023-02-11T09:27:31;3.90;98.60
11762;DHT22;5938;47.098;15.474;2023-02-11T09:31:36;5.50;91.70
11762;DHT22;5938;47.098;15.474;2023-02-11T09:35:39;5.70;86.80
11762;DHT22;5938;47.098;15.474;2023-02-11T09:39:42;5.20;85.40
11762;DHT22;5938;47.098;15.474;2023-02-11T09:43:52;4.90;86.00
11762;DHT22;5938;47.098;15.474;2023-02-11T09:47:58;5.00;86.80
11762;DHT22;5938;47.098;15.474;2023-02-11T09:52:12;4.80;87.20
11762;DHT22;5938;47.098;15.474;2023-02-11T09:56:18;4.60;85.60
11762;DHT22;5938;47.098;15.474;2023-02-11T10:00:30;4.70;87.00
11762;DHT22;5938;47.098;15.474;2023-02-11T10:05:00;5.40;85.10
11762;DHT22;5938;47.098;15.474;2023-02-11T10:09:27;6.80;82.30
11762;DHT22;5938;47.098;15.474;2023-02-11T10:13:48;7.30;79.60
11762;DHT22;5938;47.098;15.474;2023-02-11T10:18:05;7.70;79.80
11762;DHT22;5938;47.098;15.474;2023-02-11T10:22:17;7.70;81.40
11762;DHT22;5938;47.098;15.474;2023-02-11T10:26:22;8.20;78.40
11762;DHT22;5938;47.098;15.474;2023-02-11T10:30:29;8.80;76.90
11762;DHT22;5938;47.098;15.474;2023-02-11T10:34:40;8.20;77.60
11762;DHT22;5938;47.098;15.474;2023-02-11T10:38:44;7.20;78.30
11762;DHT22;5938;47.098;15.474;2023-02-11T10:42:49;8.30;78.20
11762;DHT22;5938;47.098;15.474;2023-02-11T10:46:57;9.80;73.80
11762;DHT22;5938;47.098;15.474;2023-02-11T10:51:13;10.30;71.50
11762;DHT22;5938;47.098;15.474;2023-02-11T10:55:19;10.20;70.80
11762;DHT22;5938;47.098;15.474;2023-02-11T10:59:27;10.70;69.50
11762;DHT22;5938;47.098;15.474;2023-02-11T11:03:35;11.00;70.00
11762;DHT22;5938;47.098;15.474;2023-02-11T11:07:53;12.10;65.60
11762;DHT22;5938;47.098;15.474;2023-02-11T11:11:57;11.90;63.40
11762;DHT22;5938;47.098;15.474;2023-02-11T11:16:20;11.30;65.80
11762;DHT22;5938;47.098;15.474;2023-02-11T11:20:25;10.60;65.90
11762;DHT22;5938;47.098;15.474;2023-02-11T11:24:32;10.00;67.70
11762;DHT22;5938;47.098;15.474;2023-02-11T11:28:53;9.90;68.90
11762;DHT22;5938;47.098;15.474;2023-02-11T11:32:58;9.30;69.60
11762;DHT22;5938;47.098;15.474;2023-02-11T11:37:11;9.20;71.40
11762;DHT22;5938;47.098;15.474;2023-02-11T11:41:23;9.30;71.20
11762;DHT22;5938;47.098;15.474;2023-02-11T11:45:29;10.60;64.50
11762;DHT22;5938;47.098;15.474;2023-02-11T11:49:35;9.50;66.90
11762;DHT22;5938;47.098;15.474;2023-02-11T11:53:44;10.20;67.40
11762;DHT22;5938;47.098;15.474;2023-02-11T11:57:51;13.40;61.70
11762;DHT22;5938;47.098;15.474;2023-02-11T12:02:18;16.50;56.80
11762;DHT22;5938;47.098;15.474;2023-02-11T12:06:33;17.60;54.00
11762;DHT22;5938;47.098;15.474;2023-02-11T12:10:50;17.70;54.40
11762;DHT22;5938;47.098;15.474;2023-02-11T12:15:04;19.40;50.30
11762;DHT22;5938;47.098;15.474;2023-02-11T12:19:29;18.60;50.30
11762;DHT22;5938;47.098;15.474;2023-02-11T12:23:47;18.60;49.50
11762;DHT22;5938;47.098;15.474;2023-02-11T12:28:14;19.60;48.70
11762;DHT22;5938;47.098;15.474;2023-02-11T12:32:31;19.90;49.00
11762;DHT22;5938;47.098;15.474;2023-02-11T12:36:49;19.70;48.80
11762;DHT22;5938;47.098;15.474;2023-02-11T12:41:08;17.90;50.30
11762;DHT22;5938;47.098;15.474;2023-02-11T12:45:24;17.00;51.80
11762;DHT22;5938;47.098;15.474;2023-02-11T12:49:51;17.00;50.80
11762;DHT22;5938;47.098;15.474;2023-02-11T12:54:17;15.60;53.00
11762;DHT22;5938;47.098;15.474;2023-02-11T12:58:26;17.30;50.00
11762;DHT22;5938;47.098;15.474;2023-02-11T13:02:49;15.90;51.90
11762;DHT22;5938;47.098;15.474;2023-02-11T13:07:01;15.80;54.60
11762;DHT22;5938;47.098;15.474;2023-02-11T13:11:11;16.10;54.50
11762;DHT22;5938;47.098;15.474;2023-02-11T13:15:16;17.10;51.60
11762;DHT22;5938;47.098;15.474;2023-02-11T13:19:24;18.50;49.40
11762;DHT22;5938;47.098;15.474;2023-02-11T13:23:40;21.20;46.50
11762;DHT22;5938;47.098;15.474;2023-02-11T13:27:52;22.10;43.80
11762;DHT22;5938;47.098;15.474;2023-02-11T13:32:08;22.20;42.60
11762;DHT22;5938;47.098;15.474;2023-02-11T13:36:21;21.00;43.20
11762;DHT22;5938;47.098;15.474;2023-02-11T13:40:28;17.80;46.20
11762;DHT22;5938;47.098;15.474;2023-02-11T13:44:35;15.20;49.30
11762;DHT22;5938;47.098;15.474;2023-02-11T13:48:46;13.30;52.30
11762;DHT22;5938;47.098;15.474;2023-02-11T13:52:56;12.30;54.60
11762;DHT22;5938;47.098;15.474;2023-02-11T13:57:34;11.20;57.30
11762;DHT22;5938;47.098;15.474;2023-02-11T14:01:41;10.30;59.50
11762;DHT22;5938;47.098;15.474;2023-02-11T14:06:36;10.30;59.80
11762;DHT22;5938;47.098;15.474;2023-02-11T14:11:03;10.10;60.20
11762;DHT22;5938;47.098;15.474;2023-02-11T14:15:37;9.70;62.20
11762;DHT22;5938;47.098;15.474;2023-02-11T14:19:42;9.60;63.00
11762;DHT22;5938;47.098;15.474;2023-02-11T14:23:47;9.40;64.30
11762;DHT22;5938;47.098;15.474;2023-02-11T14:27:54;9.30;64.50
11762;DHT22;5938;47.098;15.474;2023-02-11T14:32:05;9.20;65.70
11762;DHT22;5938;47.098;15.474;2023-02-11T14:40:53;8.80;65.30
11762;DHT22;5938;47.098;15.474;2023-02-11T14:45:04;8.60;64.90
11762;DHT22;5938;47.098;15.474;2023-02-11T14:49:23;8.50;63.80
11762;DHT22;5938;47.098;15.474;2023-02-11T14:53:30;8.30;64.30
11762;DHT22;5938;47.098;15.474;2023-02-11T14:57:35;8.20;65.90
11762;DHT22;5938;47.098;15.474;2023-02-11T15:01:41;8.00;64.10
11762;DHT22;5938;47.098;15.474;2023-02-11T15:05:55;7.90;67.30
11762;DHT22;5938;47.098;15.474;2023-02-11T15:10:01;7.80;69.50
11762;DHT22;5938;47.098;15.474;2023-02-11T15:14:08;7.60;72.10
11762;DHT22;5938;47.098;15.474;2023-02-11T15:18:18;7.50;72.50
11762;DHT22;5938;47.098;15.474;2023-02-11T15:22:27;7.30;73.50
11762;DHT22;5938;47.098;15.474;2023-02-11T15:26:31;7.20;72.40
11762;DHT22;5938;47.098;15.474;2023-02-11T15:30:36;7.00;75.30
11762;DHT22;5938;47.098;15.474;2023-02-11T15:34:40;6.80;70.30
11762;DHT22;5938;47.098;15.474;2023-02-11T15:39:17;6.60;72.70
11762;DHT22;5938;47.098;15.474;2023-02-11T15:43:23;6.40;78.70
11762;DHT22;5938;47.098;15.474;2023-02-11T15:47:28;6.10;80.00
11762;DHT22;5938;47.098;15.474;2023-02-11T15:51:35;5.90;79.90
11762;DHT22;5938;47.098;15.474;2023-02-11T15:55:44;5.80;79.70
11762;DHT22;5938;47.098;15.474;2023-02-11T15:59:53;5.50;79.90
11762;DHT22;5938;47.098;15.474;2023-02-11T16:03:59;5.40;79.80
11762;DHT22;5938;47.098;15.474;2023-02-11T16:08:19;5.20;79.30
11762;DHT22;5938;47.098;15.474;2023-02-11T16:12:25;5.00;81.00
11762;DHT22;5938;47.098;15.474;2023-02-11T16:16:31;4.80;82.10
11762;DHT22;5938;47.098;15.474;2023-02-11T16:20:38;4.60;81.20
11762;DHT22;5938;47.098;15.474;2023-02-11T16:24:46;4.40;82.30
11762;DHT22;5938;47.098;15.474;2023-02-11T16:29:06;4.10;84.20
11762;DHT22;5938;47.098;15.474;2023-02-11T16:33:11;3.80;83.70
11762;DHT22;5938;47.098;15.474;2023-02-11T16:37:17;3.60;84.40
11762;DHT22;5938;47.098;15.474;2023-02-11T16:41:23;3.30;85.10
11762;DHT22;5938;47.098;15.474;2023-02-11T16:45:29;3.10;85.70
11762;DHT22;5938;47.098;15.474;2023-02-11T16:49:36;2.80;86.20
11762;DHT22;5938;47.098;15.474;2023-02-11T16:53:44;2.50;86.80
11762;DHT22;5938;47.098;15.474;2023-02-11T16:57:48;2.20;87.40
11762;DHT22;5938;47.098;15.474;2023-02-11T17:01:54;2.00;88.80
11762;DHT22;5938;47.098;15.474;2023-02-11T17:06:09;2.00;88.80
11762;DHT22;5938;47.098;15.474;2023-02-11T17:10:17;1.80;90.10
11762;DHT22;5938;47.098;15.474;2023-02-11T17:14:24;1.80;90.10
11762;DHT22;5938;47.098;15.474;2023-02-11T17:18:29;1.50;90.60
11762;DHT22;5938;47.098;15.474;2023-02-11T17:22:36;1.30;90.90
11762;DHT22;5938;47.098;15.474;2023-02-11T17:26:42;1.20;91.20
11762;DHT22;5938;47.098;15.474;2023-02-11T17:31:08;1.10;91.60
11762;DHT22;5938;47.098;15.474;2023-02-11T17:35:19;1.00;92.00
11762;DHT22;5938;47.098;15.474;2023-02-11T17:39:25;1.10;92.30
11762;DHT22;5938;47.098;15.474;2023-02-11T17:43:32;1.00;92.30
11762;DHT22;5938;47.098;15.474;2023-02-11T17:47:37;1.10;92.30
11762;DHT22;5938;47.098;15.474;2023-02-11T17:51:44;1.10;92.30
11762;DHT22;5938;47.098;15.474;2023-02-11T17:55:50;1.00;92.50
11762;DHT22;5938;47.098;15.474;2023-02-11T17:59:55;1.00;92.90
11762;DHT22;5938;47.098;15.474;2023-02-11T18:04:11;1.00;93.20
11762;DHT22;5938;47.098;15.474;2023-02-11T18:08:17;0.70;93.30
11762;DHT22;5938;47.098;15.474;2023-02-11T18:12:22;0.70;93.70
11762;DHT22;5938;47.098;15.474;2023-02-11T18:16:29;0.70;94.20
11762;DHT22;5938;47.098;15.474;2023-02-11T18:20:37;0.60;94.50
11762;DHT22;5938;47.098;15.474;2023-02-11T18:24:50;0.30;94.70
11762;DHT22;5938;47.098;15.474;2023-02-11T18:28:56;0.20;95.00
11762;DHT22;5938;47.098;15.474;2023-02-11T18:33:03;0.30;94.60
11762;DHT22;5938;47.098;15.474;2023-02-11T18:37:11;0.00;94.40
11762;DHT22;5938;47.098;15.474;2023-02-11T18:41:18;0.10;94.80
11762;DHT22;5938;47.098;15.474;2023-02-11T18:45:24;-0.10;95.00
11762;DHT22;5938;47.098;15.474;2023-02-11T18:49:30;-0.20;95.30
11762;DHT22;5938;47.098;15.474;2023-02-11T18:53:40;-0.20;95.70
11762;DHT22;5938;47.098;15.474;2023-02-11T18:57:47;-0.60;95.90
11762;DHT22;5938;47.098;15.474;2023-02-11T19:02:10;-0.60;96.60
11762;DHT22;5938;47.098;15.474;2023-02-11T19:06:22;-1.00;97.00
11762;DHT22;5938;47.098;15.474;2023-02-11T19:10:30;-1.00;97.80
11762;DHT22;5938;47.098;15.474;2023-02-11T19:14:43;-1.00;97.50
11762;DHT22;5938;47.098;15.474;2023-02-11T19:18:59;-0.80;97.70
11762;DHT22;5938;47.098;15.474;2023-02-11T19:23:05;-1.00;97.70
11762;DHT22;5938;47.098;15.474;2023-02-11T19:27:14;-0.80;98.00
11762;DHT22;5938;47.098;15.474;2023-02-11T19:31:29;-1.20;98.20
11762;DHT22;5938;47.098;15.474;2023-02-11T19:35:46;-1.00;98.60
11762;DHT22;5938;47.098;15.474;2023-02-11T19:39:52;-1.30;99.20
11762;DHT22;5938;47.098;15.474;2023-02-11T19:44:00;-1.10;99.50
11762;DHT22;5938;47.098;15.474;2023-02-11T19:48:15;-1.40;99.60
11762;DHT22;5938;47.098;15.474;2023-02-11T19:52:25;-1.40;99.60
11762;DHT22;5938;47.098;15.474;2023-02-11T19:56:44;-1.50;99.60
11762;DHT22;5938;47.098;15.474;2023-02-11T20:00:53;-1.40;99.60
11762;DHT22;5938;47.098;15.474;2023-02-11T20:05:07;-1.40;99.90
11762;DHT22;5938;47.098;15.474;2023-02-11T20:09:20;-1.50;99.60
11762;DHT22;5938;47.098;15.474;2023-02-11T20:13:25;-1.40;99.60
11762;DHT22;5938;47.098;15.474;2023-02-11T20:17:36;-1.60;99.60
11762;DHT22;5938;47.098;15.474;2023-02-11T20:21:47;-1.60;99.90
11762;DHT22;5938;47.098;15.474;2023-02-11T20:25:59;-1.60;99.90
11762;DHT22;5938;47.098;15.474;2023-02-11T20:30:16;-1.70;99.90
11762;DHT22;5938;47.098;15.474;2023-02-11T20:34:23;-1.70;99.90
11762;DHT22;5938;47.098;15.474;2023-02-11T20:38:33;-1.80;99.90
11762;DHT22;5938;47.098;15.474;2023-02-11T20:42:41;-1.80;99.90
11762;DHT22;5938;47.098;15.474;2023-02-11T20:46:49;-1.90;99.90
11762;DHT22;5938;47.098;15.474;2023-02-11T20:51:00;-1.60;99.90
11762;DHT22;5938;47.098;15.474;2023-02-11T20:55:08;-1.50;99.90
11762;DHT22;5938;47.098;15.474;2023-02-11T20:59:14;-1.60;99.90
11762;DHT22;5938;47.098;15.474;2023-02-11T21:03:21;-1.40;99.90
11762;DHT22;5938;47.098;15.474;2023-02-11T21:07:25;-1.50;99.90
11762;DHT22;5938;47.098;15.474;2023-02-11T21:11:40;-1.30;99.90
11762;DHT22;5938;47.098;15.474;2023-02-11T21:15:52;-1.40;99.90
11762;DHT22;5938;47.098;15.474;2023-02-11T21:19:58;-1.40;99.90
11762;DHT22;5938;47.098;15.474;2023-02-11T21:24:03;-1.60;99.90
11762;DHT22;5938;47.098;15.474;2023-02-11T21:28:09;-1.30;99.90
11762;DHT22;5938;47.098;15.474;2023-02-11T21:32:14;-1.20;99.90
11762;DHT22;5938;47.098;15.474;2023-02-11T21:36:20;-1.50;99.90
11762;DHT22;5938;47.098;15.474;2023-02-11T21:40:25;-1.20;99.90
11762;DHT22;5938;47.098;15.474;2023-02-11T21:44:36;-1.40;99.90
11762;DHT22;5938;47.098;15.474;2023-02-11T21:48:43;-1.50;99.90
11762;DHT22;5938;47.098;15.474;2023-02-11T21:52:48;-1.30;99.90
11762;DHT22;5938;47.098;15.474;2023-02-11T21:56:54;-1.20;99.90
11762;DHT22;5938;47.098;15.474;2023-02-11T22:01:11;-1.30;99.90
11762;DHT22;5938;47.098;15.474;2023-02-11T22:05:15;-1.50;99.90
11762;DHT22;5938;47.098;15.474;2023-02-11T22:09:19;-1.10;99.90
11762;DHT22;5938;47.098;15.474;2023-02-11T22:13:23;-1.10;99.90
11762;DHT22;5938;47.098;15.474;2023-02-11T22:17:29;-1.50;99.90
11762;DHT22;5938;47.098;15.474;2023-02-11T22:21:33;-1.30;99.90
11762;DHT22;5938;47.098;15.474;2023-02-11T22:25:42;-1.50;99.90
11762;DHT22;5938;47.098;15.474;2023-02-11T22:29:47;-1.50;99.90
11762;DHT22;5938;47.098;15.474;2023-02-11T22:33:52;-1.60;99.90
11762;DHT22;5938;47.098;15.474;2023-02-11T22:37:57;-1.50;99.90
11762;DHT22;5938;47.098;15.474;2023-02-11T22:42:01;-1.60;99.90
11762;DHT22;5938;47.098;15.474;2023-02-11T22:46:06;-1.70;99.90
11762;DHT22;5938;47.098;15.474;2023-02-11T22:50:11;-1.60;99.90
11762;DHT22;5938;47.098;15.474;2023-02-11T22:54:16;-1.40;99.90
11762;DHT22;5938;47.098;15.474;2023-02-11T22:58:19;-1.40;99.90
11762;DHT22;5938;47.098;15.474;2023-02-11T23:02:23;-1.40;99.90
11762;DHT22;5938;47.098;15.474;2023-02-11T23:06:28;-1.30;99.90
11762;DHT22;5938;47.098;15.474;2023-02-11T23:10:33;-1.50;99.90
11762;DHT22;5938;47.098;15.474;2023-02-11T23:14:36;-1.90;99.90
11762;DHT22;5938;47.098;15.474;2023-02-11T23:18:41;-1.40;99.90
11762;DHT22;5938;47.098;15.474;2023-02-11T23:22:48;-1.20;99.90
11762;DHT22;5938;47.098;15.474;2023-02-11T23:26:52;-1.30;99.90
11762;DHT22;5938;47.098;15.474;2023-02-11T23:30:57;-1.00;99.90
11762;DHT22;5938;47.098;15.474;2023-02-11T23:35:01;-1.00;99.90
11762;DHT22;5938;47.098;15.474;2023-02-11T23:39:09;-0.80;99.90
11762;DHT22;5938;47.098;15.474;2023-02-11T23:43:15;-0.60;99.90
11762;DHT22;5938;47.098;15.474;2023-02-11T23:47:19;-0.80;99.90
11762;DHT22;5938;47.098;15.474;2023-02-11T23:51:22;-0.80;99.90
11762;DHT22;5938;47.098;15.474;2023-02-11T23:55:32;-0.70;99.90
11762;DHT22;5938;47.098;15.474;2023-02-11T23:59:40;-0.70;99.90
